sensor_id;sensor_type;location;lat;lon;timestamp;temperature;humidity
74511;DHT22;62991;50.040;18.400;2023-09-08T00:00:35;20.30;64.70
74511;DHT22;62991;50.040;18.400;2023-09-08T00:03:35;20.30;64.70
74511;DHT22;62991;50.040;18.400;2023-09-08T00:06:36;20.30;65.00
74511;DHT22;62991;50.040;18.400;2023-09-08T00:09:36;20.30;64.70
74511;DHT22;62991;50.040;18.400;2023-09-08T00:12:37;20.30;65.00
74511;DHT22;62991;50.040;18.400;2023-09-08T00:15:38;20.10;65.30
74511;DHT22;62991;50.040;18.400;2023-09-08T00:18:39;20.10;64.80
74511;DHT22;62991;50.040;18.400;2023-09-08T00:21:39;20.00;65.50
74511;DHT22;62991;50.040;18.400;2023-09-08T00:24:40;20.00;65.70
74511;DHT22;62991;50.040;18.400;2023-09-08T00:27:40;20.00;65.60
74511;DHT22;62991;50.040;18.400;2023-09-08T00:30:41;19.90;65.70
74511;DHT22;62991;50.040;18.400;2023-09-08T00:33:42;20.00;65.50
74511;DHT22;62991;50.040;18.400;2023-09-08T00:36:44;19.90;65.40
74511;DHT22;62991;50.040;18.400;2023-09-08T00:39:45;19.90;65.60
74511;DHT22;62991;50.040;18.400;2023-09-08T00:42:45;19.90;65.40
74511;DHT22;62991;50.040;18.400;2023-09-08T00:45:48;19.90;65.40
74511;DHT22;62991;50.040;18.400;2023-09-08T00:48:49;19.90;65.50
74511;DHT22;62991;50.040;18.400;2023-09-08T00:51:49;19.90;65.50
74511;DHT22;62991;50.040;18.400;2023-09-08T00:54:50;19.80;65.70
74511;DHT22;62991;50.040;18.400;2023-09-08T00:57:51;19.80;65.90
74511;DHT22;62991;50.040;18.400;2023-09-08T01:00:51;19.70;65.70
74511;DHT22;62991;50.040;18.400;2023-09-08T01:03:52;19.70;66.00
74511;DHT22;62991;50.040;18.400;2023-09-08T01:06:53;19.70;66.10
74511;DHT22;62991;50.040;18.400;2023-09-08T01:09:54;19.70;66.00
74511;DHT22;62991;50.040;18.400;2023-09-08T01:12:55;19.60;66.00
74511;DHT22;62991;50.040;18.400;2023-09-08T01:15:56;19.60;66.20
74511;DHT22;62991;50.040;18.400;2023-09-08T01:18:58;19.60;65.90
74511;DHT22;62991;50.040;18.400;2023-09-08T01:25:26;19.50;66.30
74511;DHT22;62991;50.040;18.400;2023-09-08T01:28:28;19.40;66.50
74511;DHT22;62991;50.040;18.400;2023-09-08T01:31:29;19.40;66.60
74511;DHT22;62991;50.040;18.400;2023-09-08T01:34:30;19.40;66.80
74511;DHT22;62991;50.040;18.400;2023-09-08T01:37:31;19.40;66.50
74511;DHT22;62991;50.040;18.400;2023-09-08T01:40:31;19.40;66.50
74511;DHT22;62991;50.040;18.400;2023-09-08T01:43:32;19.40;66.60
74511;DHT22;62991;50.040;18.400;2023-09-08T01:46:33;19.30;66.80
74511;DHT22;62991;50.040;18.400;2023-09-08T01:49:34;19.30;66.60
74511;DHT22;62991;50.040;18.400;2023-09-08T01:52:34;19.20;66.60
74511;DHT22;62991;50.040;18.400;2023-09-08T01:55:35;19.20;66.60
74511;DHT22;62991;50.040;18.400;2023-09-08T01:58:36;19.20;66.40
74511;DHT22;62991;50.040;18.400;2023-09-08T02:01:36;19.10;66.40
74511;DHT22;62991;50.040;18.400;2023-09-08T02:04:37;19.00;66.40
74511;DHT22;62991;50.040;18.400;2023-09-08T02:07:38;19.00;66.50
74511;DHT22;62991;50.040;18.400;2023-09-08T02:10:41;18.90;67.10
74511;DHT22;62991;50.040;18.400;2023-09-08T02:13:42;18.80;66.90
74511;DHT22;62991;50.040;18.400;2023-09-08T02:16:44;18.80;66.90
74511;DHT22;62991;50.040;18.400;2023-09-08T02:19:45;18.80;67.40
74511;DHT22;62991;50.040;18.400;2023-09-08T02:22:45;18.80;67.40
74511;DHT22;62991;50.040;18.400;2023-09-08T02:25:48;18.70;67.40
74511;DHT22;62991;50.040;18.400;2023-09-08T02:28:49;18.70;67.50
74511;DHT22;62991;50.040;18.400;2023-09-08T02:31:49;18.70;67.60
74511;DHT22;62991;50.040;18.400;2023-09-08T02:34:50;18.60;67.70
74511;DHT22;62991;50.040;18.400;2023-09-08T02:37:51;18.60;67.70
74511;DHT22;62991;50.040;18.400;2023-09-08T02:40:51;18.60;68.00
74511;DHT22;62991;50.040;18.400;2023-09-08T02:43:52;18.60;68.20
74511;DHT22;62991;50.040;18.400;2023-09-08T02:46:53;18.50;68.00
74511;DHT22;62991;50.040;18.400;2023-09-08T02:49:54;18.50;68.00
74511;DHT22;62991;50.040;18.400;2023-09-08T02:52:54;18.60;68.00
74511;DHT22;62991;50.040;18.400;2023-09-08T02:55:56;18.50;68.10
74511;DHT22;62991;50.040;18.400;2023-09-08T02:58:56;18.50;68.00
74511;DHT22;62991;50.040;18.400;2023-09-08T03:01:57;18.50;68.30
74511;DHT22;62991;50.040;18.400;2023-09-08T03:04:59;18.50;68.20
74511;DHT22;62991;50.040;18.400;2023-09-08T03:08:00;18.50;68.30
74511;DHT22;62991;50.040;18.400;2023-09-08T03:11:01;18.50;68.60
74511;DHT22;62991;50.040;18.400;2023-09-08T03:14:02;18.50;68.50
74511;DHT22;62991;50.040;18.400;2023-09-08T03:17:02;18.50;68.60
74511;DHT22;62991;50.040;18.400;2023-09-08T03:20:03;18.40;69.00
74511;DHT22;62991;50.040;18.400;2023-09-08T03:23:07;18.50;68.90
74511;DHT22;62991;50.040;18.400;2023-09-08T03:26:09;18.50;68.80
74511;DHT22;62991;50.040;18.400;2023-09-08T03:29:10;18.50;68.80
74511;DHT22;62991;50.040;18.400;2023-09-08T03:32:11;18.50;68.80
74511;DHT22;62991;50.040;18.400;2023-09-08T03:35:11;18.60;69.30
74511;DHT22;62991;50.040;18.400;2023-09-08T03:38:12;18.60;68.70
74511;DHT22;62991;50.040;18.400;2023-09-08T03:41:13;18.60;68.90
74511;DHT22;62991;50.040;18.400;2023-09-08T03:44:13;18.60;68.50
74511;DHT22;62991;50.040;18.400;2023-09-08T03:47:14;18.50;68.30
74511;DHT22;62991;50.040;18.400;2023-09-08T03:50:15;18.50;68.80
74511;DHT22;62991;50.040;18.400;2023-09-08T03:53:16;18.50;68.40
74511;DHT22;62991;50.040;18.400;2023-09-08T03:56:16;18.50;68.70
74511;DHT22;62991;50.040;18.400;2023-09-08T03:59:17;18.50;68.40
74511;DHT22;62991;50.040;18.400;2023-09-08T04:02:17;18.50;68.50
74511;DHT22;62991;50.040;18.400;2023-09-08T04:05:18;18.50;68.70
74511;DHT22;62991;50.040;18.400;2023-09-08T04:08:19;18.50;68.50
74511;DHT22;62991;50.040;18.400;2023-09-08T04:11:20;18.40;68.40
74511;DHT22;62991;50.040;18.400;2023-09-08T04:14:21;18.30;68.50
74511;DHT22;62991;50.040;18.400;2023-09-08T04:17:23;18.30;68.90
74511;DHT22;62991;50.040;18.400;2023-09-08T04:20:25;18.30;68.20
74511;DHT22;62991;50.040;18.400;2023-09-08T04:23:25;18.30;68.40
74511;DHT22;62991;50.040;18.400;2023-09-08T04:26:26;18.30;68.30
74511;DHT22;62991;50.040;18.400;2023-09-08T04:29:27;18.30;67.90
74511;DHT22;62991;50.040;18.400;2023-09-08T04:32:27;18.30;68.10
74511;DHT22;62991;50.040;18.400;2023-09-08T04:35:28;18.20;68.30
74511;DHT22;62991;50.040;18.400;2023-09-08T04:38:29;18.20;68.20
74511;DHT22;62991;50.040;18.400;2023-09-08T04:41:29;18.20;68.10
74511;DHT22;62991;50.040;18.400;2023-09-08T04:44:30;18.20;68.30
74511;DHT22;62991;50.040;18.400;2023-09-08T04:47:30;18.20;68.40
74511;DHT22;62991;50.040;18.400;2023-09-08T04:50:31;18.20;68.50
74511;DHT22;62991;50.040;18.400;2023-09-08T04:53:32;18.10;68.60
74511;DHT22;62991;50.040;18.400;2023-09-08T04:56:33;18.10;68.90
74511;DHT22;62991;50.040;18.400;2023-09-08T04:59:34;18.20;68.60
74511;DHT22;62991;50.040;18.400;2023-09-08T05:02:37;18.20;68.80
74511;DHT22;62991;50.040;18.400;2023-09-08T05:05:37;18.20;68.70
74511;DHT22;62991;50.040;18.400;2023-09-08T05:08:39;18.20;69.00
74511;DHT22;62991;50.040;18.400;2023-09-08T05:11:40;18.30;69.00
74511;DHT22;62991;50.040;18.400;2023-09-08T05:14:41;18.30;69.30
74511;DHT22;62991;50.040;18.400;2023-09-08T05:17:42;18.20;69.10
74511;DHT22;62991;50.040;18.400;2023-09-08T05:20:43;18.30;69.60
74511;DHT22;62991;50.040;18.400;2023-09-08T05:23:44;18.30;69.20
74511;DHT22;62991;50.040;18.400;2023-09-08T05:26:44;18.40;68.90
74511;DHT22;62991;50.040;18.400;2023-09-08T05:29:45;18.40;69.10
74511;DHT22;62991;50.040;18.400;2023-09-08T05:32:46;18.40;69.10
74511;DHT22;62991;50.040;18.400;2023-09-08T05:35:46;18.40;69.00
74511;DHT22;62991;50.040;18.400;2023-09-08T05:38:47;18.30;69.90
74511;DHT22;62991;50.040;18.400;2023-09-08T05:41:48;18.30;69.40
74511;DHT22;62991;50.040;18.400;2023-09-08T05:44:49;18.30;69.70
74511;DHT22;62991;50.040;18.400;2023-09-08T05:47:49;18.40;69.70
74511;DHT22;62991;50.040;18.400;2023-09-08T05:50:51;18.30;69.40
74511;DHT22;62991;50.040;18.400;2023-09-08T05:53:52;18.30;69.80
74511;DHT22;62991;50.040;18.400;2023-09-08T05:56:52;18.40;69.70
74511;DHT22;62991;50.040;18.400;2023-09-08T05:59:53;18.30;70.00
74511;DHT22;62991;50.040;18.400;2023-09-08T06:02:53;18.40;70.20
74511;DHT22;62991;50.040;18.400;2023-09-08T06:05:58;18.50;69.90
74511;DHT22;62991;50.040;18.400;2023-09-08T06:08:59;18.60;69.90
74511;DHT22;62991;50.040;18.400;2023-09-08T06:12:00;18.50;69.80
74511;DHT22;62991;50.040;18.400;2023-09-08T06:15:02;18.60;70.40
74511;DHT22;62991;50.040;18.400;2023-09-08T06:18:03;18.70;70.10
74511;DHT22;62991;50.040;18.400;2023-09-08T06:21:04;18.80;69.50
74511;DHT22;62991;50.040;18.400;2023-09-08T06:24:05;18.80;69.80
74511;DHT22;62991;50.040;18.400;2023-09-08T06:27:06;18.80;69.90
74511;DHT22;62991;50.040;18.400;2023-09-08T06:30:07;18.70;70.00
74511;DHT22;62991;50.040;18.400;2023-09-08T06:33:08;18.80;70.70
74511;DHT22;62991;50.040;18.400;2023-09-08T06:36:09;18.90;70.20
74511;DHT22;62991;50.040;18.400;2023-09-08T06:39:10;18.90;71.10
74511;DHT22;62991;50.040;18.400;2023-09-08T06:42:10;19.00;70.50
74511;DHT22;62991;50.040;18.400;2023-09-08T06:45:11;19.00;69.70
74511;DHT22;62991;50.040;18.400;2023-09-08T06:48:12;18.90;70.20
74511;DHT22;62991;50.040;18.400;2023-09-08T06:51:12;19.00;71.00
74511;DHT22;62991;50.040;18.400;2023-09-08T06:54:13;19.20;71.90
74511;DHT22;62991;50.040;18.400;2023-09-08T06:57:14;19.30;70.50
74511;DHT22;62991;50.040;18.400;2023-09-08T07:00:16;19.40;71.00
74511;DHT22;62991;50.040;18.400;2023-09-08T07:03:17;19.40;69.50
74511;DHT22;62991;50.040;18.400;2023-09-08T07:06:18;19.50;70.60
74511;DHT22;62991;50.040;18.400;2023-09-08T07:09:19;19.60;71.70
74511;DHT22;62991;50.040;18.400;2023-09-08T07:12:19;19.60;71.60
74511;DHT22;62991;50.040;18.400;2023-09-08T07:15:20;19.70;69.80
74511;DHT22;62991;50.040;18.400;2023-09-08T07:18:21;19.80;68.40
74511;DHT22;62991;50.040;18.400;2023-09-08T07:21:22;19.80;68.60
74511;DHT22;62991;50.040;18.400;2023-09-08T07:24:22;19.90;69.10
74511;DHT22;62991;50.040;18.400;2023-09-08T07:27:24;19.90;68.80
74511;DHT22;62991;50.040;18.400;2023-09-08T07:30:25;20.00;69.00
74511;DHT22;62991;50.040;18.400;2023-09-08T07:33:26;20.00;70.10
74511;DHT22;62991;50.040;18.400;2023-09-08T07:36:27;20.10;70.20
74511;DHT22;62991;50.040;18.400;2023-09-08T07:39:27;20.20;70.10
74511;DHT22;62991;50.040;18.400;2023-09-08T07:42:28;20.30;69.90
74511;DHT22;62991;50.040;18.400;2023-09-08T07:45:29;20.30;69.50
74511;DHT22;62991;50.040;18.400;2023-09-08T07:48:30;20.40;68.30
74511;DHT22;62991;50.040;18.400;2023-09-08T07:51:30;20.50;69.40
74511;DHT22;62991;50.040;18.400;2023-09-08T07:54:31;20.50;70.10
74511;DHT22;62991;50.040;18.400;2023-09-08T07:57:31;20.60;69.50
74511;DHT22;62991;50.040;18.400;2023-09-08T08:00:32;20.70;70.10
74511;DHT22;62991;50.040;18.400;2023-09-08T08:03:33;20.80;69.40
74511;DHT22;62991;50.040;18.400;2023-09-08T08:06:37;20.90;70.00
74511;DHT22;62991;50.040;18.400;2023-09-08T08:09:37;21.00;69.30
74511;DHT22;62991;50.040;18.400;2023-09-08T08:12:39;21.00;68.50
74511;DHT22;62991;50.040;18.400;2023-09-08T08:15:41;21.00;69.30
74511;DHT22;62991;50.040;18.400;2023-09-08T08:18:42;21.10;68.80
74511;DHT22;62991;50.040;18.400;2023-09-08T08:21:43;21.10;67.50
74511;DHT22;62991;50.040;18.400;2023-09-08T08:24:44;21.20;67.80
74511;DHT22;62991;50.040;18.400;2023-09-08T08:27:44;21.30;67.60
74511;DHT22;62991;50.040;18.400;2023-09-08T08:30:45;21.40;68.50
74511;DHT22;62991;50.040;18.400;2023-09-08T08:33:47;21.40;67.90
74511;DHT22;62991;50.040;18.400;2023-09-08T08:36:48;21.50;67.80
74511;DHT22;62991;50.040;18.400;2023-09-08T08:39:49;21.60;68.30
74511;DHT22;62991;50.040;18.400;2023-09-08T08:42:55;21.70;67.20
74511;DHT22;62991;50.040;18.400;2023-09-08T08:45:57;21.70;64.10
74511;DHT22;62991;50.040;18.400;2023-09-08T08:49:01;21.70;65.20
74511;DHT22;62991;50.040;18.400;2023-09-08T08:52:04;21.70;64.80
74511;DHT22;62991;50.040;18.400;2023-09-08T08:55:07;21.80;64.50
74511;DHT22;62991;50.040;18.400;2023-09-08T08:58:08;21.80;64.70
74511;DHT22;62991;50.040;18.400;2023-09-08T09:01:11;21.90;65.30
74511;DHT22;62991;50.040;18.400;2023-09-08T09:04:13;21.90;63.60
74511;DHT22;62991;50.040;18.400;2023-09-08T09:07:14;22.00;63.90
74511;DHT22;62991;50.040;18.400;2023-09-08T09:10:15;22.00;62.10
74511;DHT22;62991;50.040;18.400;2023-09-08T09:13:16;22.00;62.50
74511;DHT22;62991;50.040;18.400;2023-09-08T09:16:17;22.00;61.30
74511;DHT22;62991;50.040;18.400;2023-09-08T09:19:22;21.90;61.50
74511;DHT22;62991;50.040;18.400;2023-09-08T09:22:36;22.00;61.50
74511;DHT22;62991;50.040;18.400;2023-09-08T09:25:37;22.10;61.40
74511;DHT22;62991;50.040;18.400;2023-09-08T09:28:47;22.20;62.10
74511;DHT22;62991;50.040;18.400;2023-09-08T09:31:57;22.30;62.60
74511;DHT22;62991;50.040;18.400;2023-09-08T09:34:58;22.30;61.80
74511;DHT22;62991;50.040;18.400;2023-09-08T09:38:02;22.40;62.90
74511;DHT22;62991;50.040;18.400;2023-09-08T09:41:03;22.40;61.60
74511;DHT22;62991;50.040;18.400;2023-09-08T09:44:04;22.50;61.40
74511;DHT22;62991;50.040;18.400;2023-09-08T09:47:05;22.60;61.40
74511;DHT22;62991;50.040;18.400;2023-09-08T09:50:07;22.70;61.40
74511;DHT22;62991;50.040;18.400;2023-09-08T09:53:13;22.80;61.90
74511;DHT22;62991;50.040;18.400;2023-09-08T09:56:15;22.80;61.20
74511;DHT22;62991;50.040;18.400;2023-09-08T09:59:17;23.00;61.00
74511;DHT22;62991;50.040;18.400;2023-09-08T10:02:18;23.00;60.90
74511;DHT22;62991;50.040;18.400;2023-09-08T10:05:24;23.10;60.50
74511;DHT22;62991;50.040;18.400;2023-09-08T10:08:25;23.20;61.70
74511;DHT22;62991;50.040;18.400;2023-09-08T10:11:29;23.40;60.50
74511;DHT22;62991;50.040;18.400;2023-09-08T10:14:32;23.60;60.20
74511;DHT22;62991;50.040;18.400;2023-09-08T10:17:36;23.70;60.60
74511;DHT22;62991;50.040;18.400;2023-09-08T10:20:38;23.80;59.20
74511;DHT22;62991;50.040;18.400;2023-09-08T10:23:54;23.90;58.80
74511;DHT22;62991;50.040;18.400;2023-09-08T10:27:01;24.10;58.80
74511;DHT22;62991;50.040;18.400;2023-09-08T10:30:05;24.20;58.30
74511;DHT22;62991;50.040;18.400;2023-09-08T10:33:07;24.20;57.40
74511;DHT22;62991;50.040;18.400;2023-09-08T10:36:09;24.10;58.50
74511;DHT22;62991;50.040;18.400;2023-09-08T10:39:33;24.20;57.90
74511;DHT22;62991;50.040;18.400;2023-09-08T10:42:40;24.30;57.90
74511;DHT22;62991;50.040;18.400;2023-09-08T10:45:40;24.40;57.40
74511;DHT22;62991;50.040;18.400;2023-09-08T10:48:44;24.60;56.80
74511;DHT22;62991;50.040;18.400;2023-09-08T10:51:48;24.60;57.30
74511;DHT22;62991;50.040;18.400;2023-09-08T10:54:50;24.70;56.90
74511;DHT22;62991;50.040;18.400;2023-09-08T10:57:54;24.80;56.20
74511;DHT22;62991;50.040;18.400;2023-09-08T11:00:59;24.90;57.90
74511;DHT22;62991;50.040;18.400;2023-09-08T11:04:04;25.10;57.20
74511;DHT22;62991;50.040;18.400;2023-09-08T11:07:09;25.20;56.80
74511;DHT22;62991;50.040;18.400;2023-09-08T11:10:11;25.40;56.60
74511;DHT22;62991;50.040;18.400;2023-09-08T11:13:12;25.40;56.40
74511;DHT22;62991;50.040;18.400;2023-09-08T11:16:16;25.60;55.90
74511;DHT22;62991;50.040;18.400;2023-09-08T11:19:21;25.70;55.90
74511;DHT22;62991;50.040;18.400;2023-09-08T11:22:24;25.70;55.70
74511;DHT22;62991;50.040;18.400;2023-09-08T11:25:25;25.70;53.90
74511;DHT22;62991;50.040;18.400;2023-09-08T11:28:27;25.70;53.80
74511;DHT22;62991;50.040;18.400;2023-09-08T11:31:28;25.80;54.00
74511;DHT22;62991;50.040;18.400;2023-09-08T11:34:29;25.90;53.60
74511;DHT22;62991;50.040;18.400;2023-09-08T11:37:30;25.90;52.20
74511;DHT22;62991;50.040;18.400;2023-09-08T11:40:31;26.00;52.10
74511;DHT22;62991;50.040;18.400;2023-09-08T11:43:35;26.00;51.60
74511;DHT22;62991;50.040;18.400;2023-09-08T11:46:37;26.20;52.00
74511;DHT22;62991;50.040;18.400;2023-09-08T11:49:40;26.40;52.70
74511;DHT22;62991;50.040;18.400;2023-09-08T11:52:51;26.60;51.80
74511;DHT22;62991;50.040;18.400;2023-09-08T11:55:52;26.70;53.00
74511;DHT22;62991;50.040;18.400;2023-09-08T11:58:53;26.90;52.00
74511;DHT22;62991;50.040;18.400;2023-09-08T12:01:55;26.90;51.80
74511;DHT22;62991;50.040;18.400;2023-09-08T12:04:57;26.90;49.30
74511;DHT22;62991;50.040;18.400;2023-09-08T12:07:57;26.80;49.70
74511;DHT22;62991;50.040;18.400;2023-09-08T12:10:58;26.80;48.60
74511;DHT22;62991;50.040;18.400;2023-09-08T12:14:07;26.80;50.20
74511;DHT22;62991;50.040;18.400;2023-09-08T12:17:08;27.10;50.70
74511;DHT22;62991;50.040;18.400;2023-09-08T12:20:14;27.10;49.60
74511;DHT22;62991;50.040;18.400;2023-09-08T12:23:18;27.30;48.80
74511;DHT22;62991;50.040;18.400;2023-09-08T12:26:19;27.30;47.50
74511;DHT22;62991;50.040;18.400;2023-09-08T12:29:20;27.20;47.90
74511;DHT22;62991;50.040;18.400;2023-09-08T12:32:22;27.40;47.70
74511;DHT22;62991;50.040;18.400;2023-09-08T12:35:23;27.70;48.00
74511;DHT22;62991;50.040;18.400;2023-09-08T12:38:30;28.00;48.70
74511;DHT22;62991;50.040;18.400;2023-09-08T12:41:32;28.00;46.30
74511;DHT22;62991;50.040;18.400;2023-09-08T12:44:33;28.20;48.80
74511;DHT22;62991;50.040;18.400;2023-09-08T12:47:33;28.30;48.80
74511;DHT22;62991;50.040;18.400;2023-09-08T12:50:35;28.60;48.90
74511;DHT22;62991;50.040;18.400;2023-09-08T12:53:36;28.70;49.70
74511;DHT22;62991;50.040;18.400;2023-09-08T12:56:37;29.10;49.80
74511;DHT22;62991;50.040;18.400;2023-09-08T12:59:37;29.20;46.20
74511;DHT22;62991;50.040;18.400;2023-09-08T13:02:38;29.30;46.50
74511;DHT22;62991;50.040;18.400;2023-09-08T13:05:39;29.50;45.30
74511;DHT22;62991;50.040;18.400;2023-09-08T13:08:39;29.60;44.30
74511;DHT22;62991;50.040;18.400;2023-09-08T13:11:41;29.50;44.40
74511;DHT22;62991;50.040;18.400;2023-09-08T13:14:42;29.70;43.50
74511;DHT22;62991;50.040;18.400;2023-09-08T13:17:43;29.90;44.60
74511;DHT22;62991;50.040;18.400;2023-09-08T13:20:44;30.20;43.00
74511;DHT22;62991;50.040;18.400;2023-09-08T13:23:45;30.40;43.70
74511;DHT22;62991;50.040;18.400;2023-09-08T13:26:45;31.60;41.80
74511;DHT22;62991;50.040;18.400;2023-09-08T13:29:46;35.40;38.10
74511;DHT22;62991;50.040;18.400;2023-09-08T13:32:47;39.60;33.70
74511;DHT22;62991;50.040;18.400;2023-09-08T13:35:47;42.70;29.60
74511;DHT22;62991;50.040;18.400;2023-09-08T13:38:48;45.50;28.50
74511;DHT22;62991;50.040;18.400;2023-09-08T13:41:50;47.80;26.50
74511;DHT22;62991;50.040;18.400;2023-09-08T13:44:51;49.30;25.60
74511;DHT22;62991;50.040;18.400;2023-09-08T13:47:52;50.80;24.90
74511;DHT22;62991;50.040;18.400;2023-09-08T13:50:53;51.80;23.80
74511;DHT22;62991;50.040;18.400;2023-09-08T13:53:54;52.80;24.00
74511;DHT22;62991;50.040;18.400;2023-09-08T13:57:03;53.40;23.30
74511;DHT22;62991;50.040;18.400;2023-09-08T14:00:04;54.10;22.50
74511;DHT22;62991;50.040;18.400;2023-09-08T14:03:05;54.40;22.80
74511;DHT22;62991;50.040;18.400;2023-09-08T14:06:06;54.80;22.50
74511;DHT22;62991;50.040;18.400;2023-09-08T14:09:06;55.10;21.90
74511;DHT22;62991;50.040;18.400;2023-09-08T14:12:07;56.00;22.00
74511;DHT22;62991;50.040;18.400;2023-09-08T14:15:08;56.10;22.30
74511;DHT22;62991;50.040;18.400;2023-09-08T14:18:09;56.00;22.00
74511;DHT22;62991;50.040;18.400;2023-09-08T14:21:10;55.60;22.10
74511;DHT22;62991;50.040;18.400;2023-09-08T14:24:11;55.30;22.00
74511;DHT22;62991;50.040;18.400;2023-09-08T14:27:11;54.30;22.70
74511;DHT22;62991;50.040;18.400;2023-09-08T14:30:12;53.20;23.60
74511;DHT22;62991;50.040;18.400;2023-09-08T14:33:13;50.50;24.90
74511;DHT22;62991;50.040;18.400;2023-09-08T14:36:20;48.80;26.00
74511;DHT22;62991;50.040;18.400;2023-09-08T14:39:21;47.30;26.20
74511;DHT22;62991;50.040;18.400;2023-09-08T14:42:22;46.10;27.20
74511;DHT22;62991;50.040;18.400;2023-09-08T14:45:22;45.30;27.60
74511;DHT22;62991;50.040;18.400;2023-09-08T14:48:23;44.40;28.60
74511;DHT22;62991;50.040;18.400;2023-09-08T14:51:24;44.10;28.90
74511;DHT22;62991;50.040;18.400;2023-09-08T14:54:25;43.50;29.90
74511;DHT22;62991;50.040;18.400;2023-09-08T14:57:26;43.00;29.70
74511;DHT22;62991;50.040;18.400;2023-09-08T15:00:27;42.30;30.30
74511;DHT22;62991;50.040;18.400;2023-09-08T15:03:28;41.60;30.80
74511;DHT22;62991;50.040;18.400;2023-09-08T15:06:31;41.00;31.20
74511;DHT22;62991;50.040;18.400;2023-09-08T15:09:31;40.50;31.60
74511;DHT22;62991;50.040;18.400;2023-09-08T15:12:41;39.80;31.90
74511;DHT22;62991;50.040;18.400;2023-09-08T15:15:58;39.10;33.20
74511;DHT22;62991;50.040;18.400;2023-09-08T15:19:02;38.50;33.30
74511;DHT22;62991;50.040;18.400;2023-09-08T15:22:04;37.60;32.70
74511;DHT22;62991;50.040;18.400;2023-09-08T15:25:05;36.90;35.30
74511;DHT22;62991;50.040;18.400;2023-09-08T15:28:06;36.70;36.10
74511;DHT22;62991;50.040;18.400;2023-09-08T15:31:07;36.50;34.90
74511;DHT22;62991;50.040;18.400;2023-09-08T15:34:09;36.20;38.30
74511;DHT22;62991;50.040;18.400;2023-09-08T15:37:12;35.90;35.80
74511;DHT22;62991;50.040;18.400;2023-09-08T15:40:15;35.70;37.90
74511;DHT22;62991;50.040;18.400;2023-09-08T15:43:18;35.40;38.50
74511;DHT22;62991;50.040;18.400;2023-09-08T15:46:24;35.10;39.10
74511;DHT22;62991;50.040;18.400;2023-09-08T15:49:26;34.80;38.80
74511;DHT22;62991;50.040;18.400;2023-09-08T15:52:26;34.60;40.10
74511;DHT22;62991;50.040;18.400;2023-09-08T15:55:27;34.40;39.80
74511;DHT22;62991;50.040;18.400;2023-09-08T15:58:28;34.20;41.00
74511;DHT22;62991;50.040;18.400;2023-09-08T16:01:28;34.00;40.90
74511;DHT22;62991;50.040;18.400;2023-09-08T16:04:29;33.80;41.00
74511;DHT22;62991;50.040;18.400;2023-09-08T16:07:30;33.70;40.50
74511;DHT22;62991;50.040;18.400;2023-09-08T16:10:31;33.40;40.60
74511;DHT22;62991;50.040;18.400;2023-09-08T16:13:31;33.20;39.60
74511;DHT22;62991;50.040;18.400;2023-09-08T16:16:32;33.00;42.80
74511;DHT22;62991;50.040;18.400;2023-09-08T16:19:34;32.80;42.50
74511;DHT22;62991;50.040;18.400;2023-09-08T16:22:35;32.70;41.60
74511;DHT22;62991;50.040;18.400;2023-09-08T16:25:35;32.50;40.50
74511;DHT22;62991;50.040;18.400;2023-09-08T16:28:36;32.30;41.90
74511;DHT22;62991;50.040;18.400;2023-09-08T16:31:37;32.10;42.10
74511;DHT22;62991;50.040;18.400;2023-09-08T16:34:37;31.90;40.90
74511;DHT22;62991;50.040;18.400;2023-09-08T16:37:38;31.70;41.70
74511;DHT22;62991;50.040;18.400;2023-09-08T16:40:39;31.40;42.70
74511;DHT22;62991;50.040;18.400;2023-09-08T16:43:40;31.10;43.10
74511;DHT22;62991;50.040;18.400;2023-09-08T16:46:40;30.80;42.60
74511;DHT22;62991;50.040;18.400;2023-09-08T16:49:41;30.60;42.90
74511;DHT22;62991;50.040;18.400;2023-09-08T16:52:42;30.30;44.20
74511;DHT22;62991;50.040;18.400;2023-09-08T16:55:42;30.00;43.90
74511;DHT22;62991;50.040;18.400;2023-09-08T16:58:43;29.70;42.00
74511;DHT22;62991;50.040;18.400;2023-09-08T17:01:44;29.50;45.20
74511;DHT22;62991;50.040;18.400;2023-09-08T17:04:44;29.20;45.60
74511;DHT22;62991;50.040;18.400;2023-09-08T17:07:46;28.90;45.00
74511;DHT22;62991;50.040;18.400;2023-09-08T17:10:46;28.70;45.20
74511;DHT22;62991;50.040;18.400;2023-09-08T17:13:48;28.40;45.50
74511;DHT22;62991;50.040;18.400;2023-09-08T17:16:49;28.20;46.10
74511;DHT22;62991;50.040;18.400;2023-09-08T17:19:50;28.00;46.40
74511;DHT22;62991;50.040;18.400;2023-09-08T17:22:51;27.80;46.50
74511;DHT22;62991;50.040;18.400;2023-09-08T17:25:51;27.60;46.50
74511;DHT22;62991;50.040;18.400;2023-09-08T17:28:52;27.40;47.20
74511;DHT22;62991;50.040;18.400;2023-09-08T17:31:53;27.30;48.20
74511;DHT22;62991;50.040;18.400;2023-09-08T17:35:06;27.10;47.40
74511;DHT22;62991;50.040;18.400;2023-09-08T17:38:07;27.00;48.20
74511;DHT22;62991;50.040;18.400;2023-09-08T17:41:08;26.90;47.10
74511;DHT22;62991;50.040;18.400;2023-09-08T17:44:09;26.80;47.80
74511;DHT22;62991;50.040;18.400;2023-09-08T17:47:09;26.70;48.50
74511;DHT22;62991;50.040;18.400;2023-09-08T17:50:10;26.60;48.20
74511;DHT22;62991;50.040;18.400;2023-09-08T17:53:11;26.50;48.00
74511;DHT22;62991;50.040;18.400;2023-09-08T17:56:12;26.40;48.50
74511;DHT22;62991;50.040;18.400;2023-09-08T17:59:12;26.30;48.50
74511;DHT22;62991;50.040;18.400;2023-09-08T18:02:13;26.20;48.60
74511;DHT22;62991;50.040;18.400;2023-09-08T18:05:14;26.10;48.60
74511;DHT22;62991;50.040;18.400;2023-09-08T18:08:15;26.00;48.80
74511;DHT22;62991;50.040;18.400;2023-09-08T18:11:16;25.90;49.30
74511;DHT22;62991;50.040;18.400;2023-09-08T18:14:17;25.90;49.40
74511;DHT22;62991;50.040;18.400;2023-09-08T18:17:18;25.80;49.40
74511;DHT22;62991;50.040;18.400;2023-09-08T18:20:18;25.70;48.60
74511;DHT22;62991;50.040;18.400;2023-09-08T18:23:20;25.70;49.00
74511;DHT22;62991;50.040;18.400;2023-09-08T18:26:20;25.60;50.20
74511;DHT22;62991;50.040;18.400;2023-09-08T18:29:21;25.50;49.50
74511;DHT22;62991;50.040;18.400;2023-09-08T18:32:22;25.40;49.20
74511;DHT22;62991;50.040;18.400;2023-09-08T18:35:22;25.30;49.40
74511;DHT22;62991;50.040;18.400;2023-09-08T18:38:23;25.30;49.50
74511;DHT22;62991;50.040;18.400;2023-09-08T18:41:24;25.20;50.30
74511;DHT22;62991;50.040;18.400;2023-09-08T18:44:25;25.20;50.10
74511;DHT22;62991;50.040;18.400;2023-09-08T18:47:25;25.20;49.90
74511;DHT22;62991;50.040;18.400;2023-09-08T18:50:26;25.10;49.50